Station info - map view · info · telemetry · weather · raw · status · beacons · messages · bulletins · browse · moving · my account
Callsign, ship name or locator: Clear       
It is possible to search using wildcards (*?) after a prefix. Example: OH*
APRS station HB9GZG-9 - show graphs
Map loading...
Comment: 438.750MHz C071 -760 OM Dani
Mic-E message: En route
Location: 47°28.74' N 9°27.02' E - locator JN47RL44AX - show map - static map
4.6 miles Northwest bearing 303° from Heiden, Bezirk Vorderland, Appenzell Ausserrhoden, Switzerland [?]
6.1 miles Northwest bearing 309° from Oberegg, Appenzell I.Rh., Canton d'Appenzell Rhoden-Intérieur, Switzerland
42.8 miles East bearing 79° from Zürich, Bezirk Zürich, Zurich, Switzerland
90.3 miles Southwest bearing 228° from Augsburg, Regierungsbezirk Schwaben, Bavaria, Germany
Last position: 2021-08-02 11:50:30 EDT (9h11m ago)
2021-08-02 17:50:30 CEST local time at Heiden, Switzerland [?]
Altitude: 1503 ft
Course: 104°
Speed: 43 MPH
Device: Yaesu: FTM-300D (rig)
Last path: HB9GZG-9>TW2XW4 via WIDE1-1,WIDE2-1,qAO,OE9EGI-10 (good)
Positions stored: 20035
Packet rate: 145 seconds between packets on average during 2608 seconds.
Other SSIDs: HB9GZG-1 HB9GZG-10 HB9GZG-13 HB9GZG-7 HB9GZG-8
Stations near current position of HB9GZG-9 - show more
callsign distance last heard - EDT      callsign distance last heard - EDT
HB9EZX-DP0.4 miles 88°2021-07-26 03:59:17 HB9KNY-81.4 miles 3°2021-07-11 12:20:24
HB9GZG-131.4 miles 89°2021-07-09 04:45:55 HB9GZG-101.4 miles 89°2021-07-09 05:38:40
HB9HGE-71.7 miles 242°2021-07-26 13:48:48 HB9HJQ-72.4 miles 348°2021-08-01 13:10:52
HB9TIO B2.9 miles 328°2021-08-02 20:54:01 HB9TIO-B2.9 miles 328°2021-08-02 20:54:11
HB9TIM-73.6 miles 112°2021-07-25 06:01:53 HB3XXC-54.0 miles 268°2021-07-17 11:53:05
HB9DR-34.0 miles 220°2021-08-02 21:00:03 HB9JEZ B4.0 miles 220°2021-08-02 04:45:35
HB9JEZ-B4.0 miles 220°2021-08-02 04:45:45 HB9JEZ-R4.0 miles 220°2021-08-02 04:44:50
P-HB9DR34.1 miles 220°2021-08-02 21:01:05 HB/AR-0044.1 miles 142°2021-07-17 04:47:59
HB9CGA/P4.1 miles 142°2021-07-29 06:48:03 EW23074.7 miles 220°2021-08-02 21:01:17
HB/AR-0054.9 miles 191°2021-07-17 15:17:07 HB9HEY-55.3 miles 218°2021-07-05 14:02:24
Stations which heard HB9GZG-9 directly on radio –
callsign pkts first heard - EDT last heard longest (tx => rx) longest at - EDT
HB9ZF-1 3 2021-08-02 05:06:09 2021-08-02 05:08:41 JN47HM > JN47KG 20.2 miles 145° 2021-08-02 05:06:09
HB9ZF-3 18 2021-08-02 03:23:35 2021-08-02 11:17:38 JN47KM > JN47HL 10.7 miles 257° 2021-08-02 03:23:35
HB9AW-10 2 2021-08-02 01:38:26 2021-08-02 03:07:44 JN47PJ > JN47AB 64.9 miles 249° 2021-08-02 01:38:26
DB0TIT-10 3 2021-08-02 03:16:52 2021-08-02 11:27:11 JN47ML > JN47CW 49.8 miles 313° 2021-08-02 03:16:52
DM0SAT-3 1 2021-08-02 03:08:42 2021-08-02 03:08:42 JN47PK > JN47JS 30.8 miles 320° 2021-08-02 03:08:42
DB0OAL 1 2021-08-02 05:07:29 2021-08-02 05:07:29 JN47HM > JN57JN 99.9 miles 88° 2021-08-02 05:07:29
DB0WV-10 6 2021-08-02 01:29:22 2021-08-02 11:49:26 JN47NK > JN47QT 28.3 miles 24° 2021-08-02 03:11:46
HB9FXJ-10 2 2021-08-02 03:09:45 2021-08-02 03:13:34 JN47OK > JN47NN 11.0 miles 339° 2021-08-02 03:09:45
HB9NF-10 3 2021-08-02 03:29:04 2021-08-02 05:08:38 JN47HM > JN47KJ 16.3 miles 128° 2021-08-02 05:07:58
HB9EIJ-12 2 2021-08-02 03:15:36 2021-08-02 11:28:27 JN47MK > JN47ML 1.6 miles 25° 2021-08-02 11:28:27
OE9GHV-10 1 2021-08-02 01:27:06 2021-08-02 01:27:06 JN47RL > JN47WK 18.3 miles 97° 2021-08-02 01:27:06
HB9AW-11 1 2021-08-02 05:07:27 2021-08-02 05:07:27 JN47HM > JN37WB 48.9 miles 227° 2021-08-02 05:07:27
HB9CMI-10 1 2021-08-02 11:21:12 2021-08-02 11:21:12 JN47KM > JN47LM 3.5 miles 114° 2021-08-02 11:21:12
HB9ZG-2 7 2021-08-02 03:24:52 2021-08-02 11:16:00 JN47KM > JN47GA 38.0 miles 204° 2021-08-02 03:24:52
HB9FDZ-1 6 2021-08-02 01:38:58 2021-08-02 11:37:31 JN47LL > JN47PK 13.2 miles 102° 2021-08-02 11:25:14
DB0ZD-10 1 2021-08-02 05:07:28 2021-08-02 05:07:28 JN47HM > JN57CM 73.6 miles 89° 2021-08-02 05:07:28
HB3YGP-2 8 2021-08-02 01:37:08 2021-08-02 11:42:13 JN47PJ > JN47QJ 2.9 miles 97° 2021-08-02 01:40:27
OE9EGI-10 1 2021-08-02 11:50:30 2021-08-02 11:50:30 JN47RL > JN47XL 22.4 miles 88° 2021-08-02 11:50:30

Only position packets which were originated by the station are shown here. The range statistics show some extra long hops, because some digipeaters do not correctly add themselves to the digipeater path. Please check the raw packets.
About this site
This page shows real-time information collected from the Automatic Position Reporting System Internet network (APRS-IS). APRS is used by amateur (ham) radio operators to transmit real-time position information, weather data, telemetry and messages over the radio. A vehicle equipped with a GPS receiver, a VHF transmitter or HF transceiver and a small computer device called a tracker transmits it's location, speed and course in a small data packet, which is then received by a nearby iGate receiving site which forwards the packet on the Internet. Systems connected to the Internet can send information on the APRS-IS without a radio transmitter, or collect and display information transmitted anywhere in the world.
User guide · FAQ · Blog · Discussion group · Linking to aprs.fi · AIS sites · Service status · Database statistics · Advertising on aprs.fi · Technical details · API · Change log · Planned changes · Credits and thanks · Terms Of Service · iPhone/iPad APRS